sensor_id;sensor_type;location;lat;lon;timestamp;P1;durP1;ratioP1;P2;durP2;ratioP2
13331;SDS011;6735;51.456;12.626;2023-04-01T00:00:50;3.90;;;2.00;;
13331;SDS011;6735;51.456;12.626;2023-04-01T00:03:17;5.97;;;2.07;;
13331;SDS011;6735;51.456;12.626;2023-04-01T00:05:43;2.57;;;1.80;;
13331;SDS011;6735;51.456;12.626;2023-04-01T00:08:08;3.43;;;1.80;;
13331;SDS011;6735;51.456;12.626;2023-04-01T00:10:34;4.53;;;2.20;;
13331;SDS011;6735;51.456;12.626;2023-04-01T00:12:59;3.67;;;2.00;;
13331;SDS011;6735;51.456;12.626;2023-04-01T00:15:25;6.43;;;2.10;;
13331;SDS011;6735;51.456;12.626;2023-04-01T00:17:50;3.67;;;2.00;;
13331;SDS011;6735;51.456;12.626;2023-04-01T00:20:16;1.90;;;1.60;;
13331;SDS011;6735;51.456;12.626;2023-04-01T00:22:42;3.83;;;1.90;;
13331;SDS011;6735;51.456;12.626;2023-04-01T00:25:07;4.30;;;1.80;;
13331;SDS011;6735;51.456;12.626;2023-04-01T00:27:33;3.13;;;1.93;;
13331;SDS011;6735;51.456;12.626;2023-04-01T00:29:58;6.33;;;1.90;;
13331;SDS011;6735;51.456;12.626;2023-04-01T00:32:24;2.30;;;1.80;;
13331;SDS011;6735;51.456;12.626;2023-04-01T00:34:50;3.67;;;2.30;;
13331;SDS011;6735;51.456;12.626;2023-04-01T00:37:17;4.07;;;2.30;;
13331;SDS011;6735;51.456;12.626;2023-04-01T00:39:43;2.93;;;2.30;;
13331;SDS011;6735;51.456;12.626;2023-04-01T00:42:09;2.80;;;2.00;;
13331;SDS011;6735;51.456;12.626;2023-04-01T00:44:36;3.20;;;2.10;;
13331;SDS011;6735;51.456;12.626;2023-04-01T00:47:02;2.60;;;2.30;;
13331;SDS011;6735;51.456;12.626;2023-04-01T00:49:29;4.13;;;2.20;;
13331;SDS011;6735;51.456;12.626;2023-04-01T00:51:58;2.80;;;2.30;;
13331;SDS011;6735;51.456;12.626;2023-04-01T00:54:26;6.40;;;2.43;;
13331;SDS011;6735;51.456;12.626;2023-04-01T00:57:00;4.20;;;2.27;;
13331;SDS011;6735;51.456;12.626;2023-04-01T00:59:34;6.13;;;2.70;;
13331;SDS011;6735;51.456;12.626;2023-04-01T01:02:07;6.77;;;2.77;;
13331;SDS011;6735;51.456;12.626;2023-04-01T01:04:35;5.13;;;2.40;;
13331;SDS011;6735;51.456;12.626;2023-04-01T01:07:13;6.13;;;2.50;;
13331;SDS011;6735;51.456;12.626;2023-04-01T01:09:51;4.13;;;2.20;;
13331;SDS011;6735;51.456;12.626;2023-04-01T01:12:30;4.17;;;2.10;;
13331;SDS011;6735;51.456;12.626;2023-04-01T01:23:34;3.30;;;1.90;;
13331;SDS011;6735;51.456;12.626;2023-04-01T01:32:20;2.73;;;2.40;;
13331;SDS011;6735;51.456;12.626;2023-04-01T01:35:21;5.60;;;2.40;;
13331;SDS011;6735;51.456;12.626;2023-04-01T01:37:58;3.83;;;2.20;;
13331;SDS011;6735;51.456;12.626;2023-04-01T01:40:36;2.47;;;2.27;;
13331;SDS011;6735;51.456;12.626;2023-04-01T01:43:06;4.43;;;2.33;;
13331;SDS011;6735;51.456;12.626;2023-04-01T01:45:35;3.37;;;2.30;;
13331;SDS011;6735;51.456;12.626;2023-04-01T01:48:05;2.77;;;2.30;;
13331;SDS011;6735;51.456;12.626;2023-04-01T01:50:33;4.57;;;2.40;;
13331;SDS011;6735;51.456;12.626;2023-04-01T01:53:00;6.73;;;2.77;;
13331;SDS011;6735;51.456;12.626;2023-04-01T01:55:37;4.83;;;2.27;;
13331;SDS011;6735;51.456;12.626;2023-04-01T01:58:07;3.93;;;2.20;;
13331;SDS011;6735;51.456;12.626;2023-04-01T02:00:46;6.60;;;2.50;;
13331;SDS011;6735;51.456;12.626;2023-04-01T02:03:16;4.70;;;2.37;;
13331;SDS011;6735;51.456;12.626;2023-04-01T02:05:45;2.57;;;2.20;;
13331;SDS011;6735;51.456;12.626;2023-04-01T02:08:17;4.00;;;2.60;;
13331;SDS011;6735;51.456;12.626;2023-04-01T02:10:49;4.60;;;2.43;;
13331;SDS011;6735;51.456;12.626;2023-04-01T02:13:31;6.13;;;2.50;;
13331;SDS011;6735;51.456;12.626;2023-04-01T02:16:04;5.80;;;2.40;;
13331;SDS011;6735;51.456;12.626;2023-04-01T02:18:36;4.97;;;2.60;;
13331;SDS011;6735;51.456;12.626;2023-04-01T02:21:03;3.47;;;2.50;;
13331;SDS011;6735;51.456;12.626;2023-04-01T02:23:30;4.60;;;2.77;;
13331;SDS011;6735;51.456;12.626;2023-04-01T02:25:58;4.70;;;2.57;;
13331;SDS011;6735;51.456;12.626;2023-04-01T02:28:25;5.33;;;2.60;;
13331;SDS011;6735;51.456;12.626;2023-04-01T02:30:52;6.93;;;2.70;;
13331;SDS011;6735;51.456;12.626;2023-04-01T02:33:18;4.57;;;2.23;;
13331;SDS011;6735;51.456;12.626;2023-04-01T02:35:45;5.53;;;2.50;;
13331;SDS011;6735;51.456;12.626;2023-04-01T02:38:10;5.93;;;2.63;;
13331;SDS011;6735;51.456;12.626;2023-04-01T02:40:43;3.13;;;2.50;;
13331;SDS011;6735;51.456;12.626;2023-04-01T02:43:10;3.50;;;2.47;;
13331;SDS011;6735;51.456;12.626;2023-04-01T02:45:36;5.17;;;2.50;;
13331;SDS011;6735;51.456;12.626;2023-04-01T02:48:01;9.10;;;2.80;;
13331;SDS011;6735;51.456;12.626;2023-04-01T02:50:27;4.30;;;2.37;;
13331;SDS011;6735;51.456;12.626;2023-04-01T02:52:52;4.27;;;2.57;;
13331;SDS011;6735;51.456;12.626;2023-04-01T02:55:18;5.13;;;2.83;;
13331;SDS011;6735;51.456;12.626;2023-04-01T02:57:43;4.23;;;2.47;;
13331;SDS011;6735;51.456;12.626;2023-04-01T03:00:09;4.67;;;2.87;;
13331;SDS011;6735;51.456;12.626;2023-04-01T03:02:36;3.77;;;2.70;;
13331;SDS011;6735;51.456;12.626;2023-04-01T03:05:03;7.03;;;2.77;;
13331;SDS011;6735;51.456;12.626;2023-04-01T03:07:29;4.43;;;2.50;;
13331;SDS011;6735;51.456;12.626;2023-04-01T03:09:54;5.80;;;2.57;;
13331;SDS011;6735;51.456;12.626;2023-04-01T03:12:20;6.03;;;2.60;;
13331;SDS011;6735;51.456;12.626;2023-04-01T03:14:45;3.30;;;2.60;;
13331;SDS011;6735;51.456;12.626;2023-04-01T03:17:11;4.57;;;2.60;;
13331;SDS011;6735;51.456;12.626;2023-04-01T03:19:36;7.70;;;2.77;;
13331;SDS011;6735;51.456;12.626;2023-04-01T03:22:02;3.07;;;2.60;;
13331;SDS011;6735;51.456;12.626;2023-04-01T03:24:27;3.57;;;2.40;;
13331;SDS011;6735;51.456;12.626;2023-04-01T03:26:52;4.77;;;2.77;;
13331;SDS011;6735;51.456;12.626;2023-04-01T03:29:18;4.30;;;2.90;;
13331;SDS011;6735;51.456;12.626;2023-04-01T03:31:43;4.17;;;2.50;;
13331;SDS011;6735;51.456;12.626;2023-04-01T03:34:09;4.93;;;2.70;;
13331;SDS011;6735;51.456;12.626;2023-04-01T03:36:35;4.67;;;2.40;;
13331;SDS011;6735;51.456;12.626;2023-04-01T03:39:00;4.33;;;2.47;;
13331;SDS011;6735;51.456;12.626;2023-04-01T03:41:26;3.57;;;2.50;;
13331;SDS011;6735;51.456;12.626;2023-04-01T03:43:52;5.03;;;2.57;;
13331;SDS011;6735;51.456;12.626;2023-04-01T03:46:18;7.40;;;2.80;;
13331;SDS011;6735;51.456;12.626;2023-04-01T03:48:45;4.97;;;2.67;;
13331;SDS011;6735;51.456;12.626;2023-04-01T03:51:11;6.20;;;2.83;;
13331;SDS011;6735;51.456;12.626;2023-04-01T03:53:36;6.97;;;2.77;;
13331;SDS011;6735;51.456;12.626;2023-04-01T03:56:05;4.87;;;2.53;;
13331;SDS011;6735;51.456;12.626;2023-04-01T03:58:31;4.80;;;2.63;;
13331;SDS011;6735;51.456;12.626;2023-04-01T04:00:57;7.73;;;2.33;;
13331;SDS011;6735;51.456;12.626;2023-04-01T04:03:22;4.53;;;2.30;;
13331;SDS011;6735;51.456;12.626;2023-04-01T04:05:48;4.30;;;2.47;;
13331;SDS011;6735;51.456;12.626;2023-04-01T04:08:14;6.17;;;2.60;;
13331;SDS011;6735;51.456;12.626;2023-04-01T04:10:40;4.30;;;2.23;;
13331;SDS011;6735;51.456;12.626;2023-04-01T04:13:06;5.07;;;2.90;;
13331;SDS011;6735;51.456;12.626;2023-04-01T04:15:31;5.67;;;2.40;;
13331;SDS011;6735;51.456;12.626;2023-04-01T04:17:57;4.03;;;2.40;;
13331;SDS011;6735;51.456;12.626;2023-04-01T04:20:22;5.53;;;2.90;;
13331;SDS011;6735;51.456;12.626;2023-04-01T04:22:48;4.07;;;2.40;;
13331;SDS011;6735;51.456;12.626;2023-04-01T04:25:13;5.90;;;2.50;;
13331;SDS011;6735;51.456;12.626;2023-04-01T04:27:39;4.27;;;2.53;;
13331;SDS011;6735;51.456;12.626;2023-04-01T04:30:06;5.43;;;2.63;;
13331;SDS011;6735;51.456;12.626;2023-04-01T04:32:33;7.90;;;2.63;;
13331;SDS011;6735;51.456;12.626;2023-04-01T04:34:59;4.27;;;2.70;;
13331;SDS011;6735;51.456;12.626;2023-04-01T04:37:24;4.53;;;2.73;;
13331;SDS011;6735;51.456;12.626;2023-04-01T04:39:50;6.53;;;2.70;;
13331;SDS011;6735;51.456;12.626;2023-04-01T04:42:16;5.03;;;2.40;;
13331;SDS011;6735;51.456;12.626;2023-04-01T04:44:41;6.77;;;2.60;;
13331;SDS011;6735;51.456;12.626;2023-04-01T04:47:07;4.00;;;2.60;;
13331;SDS011;6735;51.456;12.626;2023-04-01T04:49:32;8.47;;;2.87;;
13331;SDS011;6735;51.456;12.626;2023-04-01T04:51:58;4.90;;;2.90;;
13331;SDS011;6735;51.456;12.626;2023-04-01T04:54:24;3.97;;;2.57;;
13331;SDS011;6735;51.456;12.626;2023-04-01T04:56:51;9.40;;;2.93;;
13331;SDS011;6735;51.456;12.626;2023-04-01T04:59:17;7.10;;;3.13;;
13331;SDS011;6735;51.456;12.626;2023-04-01T05:01:42;6.17;;;2.50;;
13331;SDS011;6735;51.456;12.626;2023-04-01T05:04:08;4.77;;;2.50;;
13331;SDS011;6735;51.456;12.626;2023-04-01T05:06:33;5.70;;;2.80;;
13331;SDS011;6735;51.456;12.626;2023-04-01T05:08:59;7.57;;;2.80;;
13331;SDS011;6735;51.456;12.626;2023-04-01T05:11:24;4.67;;;2.50;;
13331;SDS011;6735;51.456;12.626;2023-04-01T05:13:51;5.63;;;3.10;;
13331;SDS011;6735;51.456;12.626;2023-04-01T05:16:17;7.30;;;3.10;;
13331;SDS011;6735;51.456;12.626;2023-04-01T05:18:44;7.07;;;3.33;;
13331;SDS011;6735;51.456;12.626;2023-04-01T05:21:11;5.20;;;3.10;;
13331;SDS011;6735;51.456;12.626;2023-04-01T05:23:39;8.60;;;3.30;;
13331;SDS011;6735;51.456;12.626;2023-04-01T05:26:05;5.50;;;2.87;;
13331;SDS011;6735;51.456;12.626;2023-04-01T05:28:32;5.47;;;3.27;;
13331;SDS011;6735;51.456;12.626;2023-04-01T05:31:01;3.97;;;2.90;;
13331;SDS011;6735;51.456;12.626;2023-04-01T05:33:28;5.03;;;3.33;;
13331;SDS011;6735;51.456;12.626;2023-04-01T05:35:54;6.90;;;3.70;;
13331;SDS011;6735;51.456;12.626;2023-04-01T05:38:20;4.80;;;3.27;;
13331;SDS011;6735;51.456;12.626;2023-04-01T05:40:45;5.40;;;3.33;;
13331;SDS011;6735;51.456;12.626;2023-04-01T05:43:11;5.40;;;2.93;;
13331;SDS011;6735;51.456;12.626;2023-04-01T05:45:37;5.77;;;2.80;;
13331;SDS011;6735;51.456;12.626;2023-04-01T05:48:02;7.50;;;2.97;;
13331;SDS011;6735;51.456;12.626;2023-04-01T05:50:28;3.43;;;2.73;;
13331;SDS011;6735;51.456;12.626;2023-04-01T05:52:53;3.57;;;2.80;;
13331;SDS011;6735;51.456;12.626;2023-04-01T05:55:19;4.60;;;2.67;;
13331;SDS011;6735;51.456;12.626;2023-04-01T05:57:45;7.87;;;2.80;;
13331;SDS011;6735;51.456;12.626;2023-04-01T06:00:13;6.87;;;2.73;;
13331;SDS011;6735;51.456;12.626;2023-04-01T06:02:39;3.87;;;2.90;;
13331;SDS011;6735;51.456;12.626;2023-04-01T06:05:17;4.10;;;2.53;;
13331;SDS011;6735;51.456;12.626;2023-04-01T06:07:45;6.00;;;3.20;;
13331;SDS011;6735;51.456;12.626;2023-04-01T06:10:15;5.03;;;2.63;;
13331;SDS011;6735;51.456;12.626;2023-04-01T06:12:55;4.50;;;2.50;;
13331;SDS011;6735;51.456;12.626;2023-04-01T06:21:27;7.23;;;2.53;;
13331;SDS011;6735;51.456;12.626;2023-04-01T06:27:00;3.43;;;2.20;;
13331;SDS011;6735;51.456;12.626;2023-04-01T06:29:57;5.10;;;2.43;;
13331;SDS011;6735;51.456;12.626;2023-04-01T06:37:48;6.13;;;2.30;;
13331;SDS011;6735;51.456;12.626;2023-04-01T06:40:40;3.97;;;2.10;;
13331;SDS011;6735;51.456;12.626;2023-04-01T06:51:58;3.83;;;2.20;;
13331;SDS011;6735;51.456;12.626;2023-04-01T06:54:33;4.70;;;2.03;;
13331;SDS011;6735;51.456;12.626;2023-04-01T06:57:23;5.73;;;2.30;;
13331;SDS011;6735;51.456;12.626;2023-04-01T06:59:57;3.70;;;2.40;;
13331;SDS011;6735;51.456;12.626;2023-04-01T07:02:39;5.23;;;2.30;;
13331;SDS011;6735;51.456;12.626;2023-04-01T07:05:18;2.33;;;1.97;;
13331;SDS011;6735;51.456;12.626;2023-04-01T07:07:46;3.67;;;2.10;;
13331;SDS011;6735;51.456;12.626;2023-04-01T07:10:17;4.03;;;2.00;;
13331;SDS011;6735;51.456;12.626;2023-04-01T07:12:58;3.00;;;1.93;;
13331;SDS011;6735;51.456;12.626;2023-04-01T07:15:28;3.90;;;2.07;;
13331;SDS011;6735;51.456;12.626;2023-04-01T07:18:07;4.03;;;2.10;;
13331;SDS011;6735;51.456;12.626;2023-04-01T07:20:41;4.73;;;2.40;;
13331;SDS011;6735;51.456;12.626;2023-04-01T07:23:10;2.83;;;2.20;;
13331;SDS011;6735;51.456;12.626;2023-04-01T07:25:45;3.93;;;2.00;;
13331;SDS011;6735;51.456;12.626;2023-04-01T07:28:16;3.57;;;2.33;;
13331;SDS011;6735;51.456;12.626;2023-04-01T07:33:24;4.67;;;2.60;;
13331;SDS011;6735;51.456;12.626;2023-04-01T07:36:01;3.90;;;2.30;;
13331;SDS011;6735;51.456;12.626;2023-04-01T07:41:34;4.00;;;2.43;;
13331;SDS011;6735;51.456;12.626;2023-04-01T07:44:25;2.93;;;2.13;;
13331;SDS011;6735;51.456;12.626;2023-04-01T07:50:00;3.87;;;2.10;;
13331;SDS011;6735;51.456;12.626;2023-04-01T07:52:44;3.70;;;2.10;;
13331;SDS011;6735;51.456;12.626;2023-04-01T08:03:28;5.27;;;2.23;;
13331;SDS011;6735;51.456;12.626;2023-04-01T08:06:45;2.50;;;1.70;;
13331;SDS011;6735;51.456;12.626;2023-04-01T08:09:36;4.23;;;2.23;;
13331;SDS011;6735;51.456;12.626;2023-04-01T08:15:19;3.87;;;2.10;;
13331;SDS011;6735;51.456;12.626;2023-04-01T08:18:17;4.40;;;1.50;;
13331;SDS011;6735;51.456;12.626;2023-04-01T08:21:13;3.57;;;1.80;;
13331;SDS011;6735;51.456;12.626;2023-04-01T08:23:53;4.53;;;2.27;;
13331;SDS011;6735;51.456;12.626;2023-04-01T08:28:55;2.47;;;1.73;;
13331;SDS011;6735;51.456;12.626;2023-04-01T08:31:33;2.27;;;1.50;;
13331;SDS011;6735;51.456;12.626;2023-04-01T08:34:20;2.60;;;1.60;;
13331;SDS011;6735;51.456;12.626;2023-04-01T08:36:51;3.07;;;2.13;;
13331;SDS011;6735;51.456;12.626;2023-04-01T08:42:02;3.43;;;2.00;;
13331;SDS011;6735;51.456;12.626;2023-04-01T08:44:53;3.43;;;2.10;;
13331;SDS011;6735;51.456;12.626;2023-04-01T08:47:35;2.67;;;1.60;;
13331;SDS011;6735;51.456;12.626;2023-04-01T08:52:49;1.53;;;1.43;;
13331;SDS011;6735;51.456;12.626;2023-04-01T08:55:39;3.20;;;1.60;;
13331;SDS011;6735;51.456;12.626;2023-04-01T08:58:23;2.47;;;1.50;;
13331;SDS011;6735;51.456;12.626;2023-04-01T09:01:15;3.47;;;1.70;;
13331;SDS011;6735;51.456;12.626;2023-04-01T09:06:52;3.40;;;1.70;;
13331;SDS011;6735;51.456;12.626;2023-04-01T09:09:42;4.13;;;1.63;;
13331;SDS011;6735;51.456;12.626;2023-04-01T09:12:49;1.73;;;1.43;;
13331;SDS011;6735;51.456;12.626;2023-04-01T09:15:37;3.97;;;1.70;;
13331;SDS011;6735;51.456;12.626;2023-04-01T09:18:30;2.37;;;1.50;;
13331;SDS011;6735;51.456;12.626;2023-04-01T09:21:24;3.33;;;1.67;;
13331;SDS011;6735;51.456;12.626;2023-04-01T09:32:08;2.00;;;1.23;;
13331;SDS011;6735;51.456;12.626;2023-04-01T09:34:51;2.37;;;1.20;;
13331;SDS011;6735;51.456;12.626;2023-04-01T09:40:09;2.17;;;1.50;;
13331;SDS011;6735;51.456;12.626;2023-04-01T09:42:44;1.57;;;1.20;;
13331;SDS011;6735;51.456;12.626;2023-04-01T09:51:02;2.60;;;1.30;;
13331;SDS011;6735;51.456;12.626;2023-04-01T09:53:58;3.30;;;1.80;;
13331;SDS011;6735;51.456;12.626;2023-04-01T10:02:28;2.67;;;1.70;;
13331;SDS011;6735;51.456;12.626;2023-04-01T10:05:16;4.47;;;1.60;;
13331;SDS011;6735;51.456;12.626;2023-04-01T10:08:06;1.87;;;1.33;;
13331;SDS011;6735;51.456;12.626;2023-04-01T10:27:46;1.67;;;1.50;;
13331;SDS011;6735;51.456;12.626;2023-04-01T10:30:35;2.17;;;1.43;;
13331;SDS011;6735;51.456;12.626;2023-04-01T10:33:38;2.20;;;1.37;;
13331;SDS011;6735;51.456;12.626;2023-04-01T10:42:14;3.83;;;1.47;;
13331;SDS011;6735;51.456;12.626;2023-04-01T10:45:31;1.50;;;1.40;;
13331;SDS011;6735;51.456;12.626;2023-04-01T10:51:42;2.73;;;1.60;;
13331;SDS011;6735;51.456;12.626;2023-04-01T11:00:53;2.83;;;1.40;;
13331;SDS011;6735;51.456;12.626;2023-04-01T11:11:48;2.37;;;1.40;;
13331;SDS011;6735;51.456;12.626;2023-04-01T11:22:19;2.83;;;1.43;;
13331;SDS011;6735;51.456;12.626;2023-04-01T11:28:19;3.23;;;1.67;;
13331;SDS011;6735;51.456;12.626;2023-04-01T11:34:22;4.40;;;2.00;;
13331;SDS011;6735;51.456;12.626;2023-04-01T11:39:53;2.07;;;1.73;;
13331;SDS011;6735;51.456;12.626;2023-04-01T11:42:49;2.30;;;1.90;;
13331;SDS011;6735;51.456;12.626;2023-04-01T11:45:35;3.20;;;1.73;;
13331;SDS011;6735;51.456;12.626;2023-04-01T11:48:12;2.83;;;1.90;;
13331;SDS011;6735;51.456;12.626;2023-04-01T11:50:53;3.67;;;1.63;;
13331;SDS011;6735;51.456;12.626;2023-04-01T11:59:40;2.30;;;1.67;;
13331;SDS011;6735;51.456;12.626;2023-04-01T12:08:04;2.40;;;1.57;;
13331;SDS011;6735;51.456;12.626;2023-04-01T12:10:39;2.57;;;1.60;;
13331;SDS011;6735;51.456;12.626;2023-04-01T12:18:50;1.50;;;1.40;;
13331;SDS011;6735;51.456;12.626;2023-04-01T12:33:07;2.97;;;1.83;;
13331;SDS011;6735;51.456;12.626;2023-04-01T12:41:37;2.07;;;1.60;;
13331;SDS011;6735;51.456;12.626;2023-04-01T12:44:13;1.93;;;1.83;;
13331;SDS011;6735;51.456;12.626;2023-04-01T12:46:57;2.73;;;1.80;;
13331;SDS011;6735;51.456;12.626;2023-04-01T12:50:11;3.87;;;1.97;;
13331;SDS011;6735;51.456;12.626;2023-04-01T12:55:39;3.40;;;2.57;;
13331;SDS011;6735;51.456;12.626;2023-04-01T12:58:20;3.77;;;2.20;;
13331;SDS011;6735;51.456;12.626;2023-04-01T13:04:08;2.27;;;2.07;;
13331;SDS011;6735;51.456;12.626;2023-04-01T13:12:44;2.23;;;1.90;;
13331;SDS011;6735;51.456;12.626;2023-04-01T13:18:28;3.13;;;2.53;;
13331;SDS011;6735;51.456;12.626;2023-04-01T13:23:55;1.97;;;1.87;;
13331;SDS011;6735;51.456;12.626;2023-04-01T13:26:38;2.20;;;2.00;;
13331;SDS011;6735;51.456;12.626;2023-04-01T13:29:12;1.90;;;1.80;;
13331;SDS011;6735;51.456;12.626;2023-04-01T13:34:29;1.33;;;1.23;;
13331;SDS011;6735;51.456;12.626;2023-04-01T13:39:40;2.47;;;2.20;;
13331;SDS011;6735;51.456;12.626;2023-04-01T13:42:18;2.53;;;2.33;;
13331;SDS011;6735;51.456;12.626;2023-04-01T13:44:51;3.03;;;2.00;;
13331;SDS011;6735;51.456;12.626;2023-04-01T13:56:14;1.67;;;1.43;;
13331;SDS011;6735;51.456;12.626;2023-04-01T13:58:58;2.13;;;1.93;;
13331;SDS011;6735;51.456;12.626;2023-04-01T14:01:38;2.77;;;1.83;;
13331;SDS011;6735;51.456;12.626;2023-04-01T14:04:17;1.90;;;1.80;;
13331;SDS011;6735;51.456;12.626;2023-04-01T14:07:18;1.40;;;1.30;;
13331;SDS011;6735;51.456;12.626;2023-04-01T14:10:16;2.00;;;1.50;;
13331;SDS011;6735;51.456;12.626;2023-04-01T14:12:47;1.70;;;1.60;;
13331;SDS011;6735;51.456;12.626;2023-04-01T14:15:39;1.70;;;1.60;;
13331;SDS011;6735;51.456;12.626;2023-04-01T14:21:13;2.03;;;1.90;;
13331;SDS011;6735;51.456;12.626;2023-04-01T14:24:13;1.43;;;1.33;;
13331;SDS011;6735;51.456;12.626;2023-04-01T14:27:19;1.30;;;1.20;;
13331;SDS011;6735;51.456;12.626;2023-04-01T14:35:48;1.87;;;1.60;;
13331;SDS011;6735;51.456;12.626;2023-04-01T14:41:35;2.40;;;1.57;;
13331;SDS011;6735;51.456;12.626;2023-04-01T14:44:18;1.20;;;1.20;;
13331;SDS011;6735;51.456;12.626;2023-04-01T14:50:04;1.10;;;1.10;;
13331;SDS011;6735;51.456;12.626;2023-04-01T14:52:40;1.23;;;1.13;;
13331;SDS011;6735;51.456;12.626;2023-04-01T14:55:23;1.87;;;1.20;;
13331;SDS011;6735;51.456;12.626;2023-04-01T15:00:41;2.40;;;1.13;;
13331;SDS011;6735;51.456;12.626;2023-04-01T15:03:30;1.20;;;1.10;;
13331;SDS011;6735;51.456;12.626;2023-04-01T15:06:16;2.03;;;1.20;;
13331;SDS011;6735;51.456;12.626;2023-04-01T15:14:27;2.23;;;1.80;;
13331;SDS011;6735;51.456;12.626;2023-04-01T15:25:36;2.27;;;2.17;;
13331;SDS011;6735;51.456;12.626;2023-04-01T15:28:37;1.93;;;1.83;;
13331;SDS011;6735;51.456;12.626;2023-04-01T15:31:14;1.77;;;1.67;;
13331;SDS011;6735;51.456;12.626;2023-04-01T15:48:10;1.40;;;1.30;;
13331;SDS011;6735;51.456;12.626;2023-04-01T15:50:54;4.07;;;2.27;;
13331;SDS011;6735;51.456;12.626;2023-04-01T15:53:49;2.10;;;2.00;;
13331;SDS011;6735;51.456;12.626;2023-04-01T15:56:24;1.73;;;1.63;;
13331;SDS011;6735;51.456;12.626;2023-04-01T16:01:38;2.03;;;1.90;;
13331;SDS011;6735;51.456;12.626;2023-04-01T16:04:33;2.37;;;2.07;;
13331;SDS011;6735;51.456;12.626;2023-04-01T16:09:56;1.80;;;1.70;;
13331;SDS011;6735;51.456;12.626;2023-04-01T16:12:35;1.70;;;1.60;;
13331;SDS011;6735;51.456;12.626;2023-04-01T16:15:21;2.23;;;1.77;;
13331;SDS011;6735;51.456;12.626;2023-04-01T16:20:56;1.53;;;1.43;;
13331;SDS011;6735;51.456;12.626;2023-04-01T16:26:16;1.50;;;1.40;;
13331;SDS011;6735;51.456;12.626;2023-04-01T16:32:02;2.80;;;2.20;;
13331;SDS011;6735;51.456;12.626;2023-04-01T16:37:48;1.60;;;1.53;;
13331;SDS011;6735;51.456;12.626;2023-04-01T16:40:25;6.17;;;5.33;;
13331;SDS011;6735;51.456;12.626;2023-04-01T16:43:12;6.63;;;6.03;;
13331;SDS011;6735;51.456;12.626;2023-04-01T16:46:17;4.50;;;3.77;;
13331;SDS011;6735;51.456;12.626;2023-04-01T16:57:02;1.63;;;1.40;;
13331;SDS011;6735;51.456;12.626;2023-04-01T17:02:12;4.83;;;4.07;;
13331;SDS011;6735;51.456;12.626;2023-04-01T17:07:20;11.47;;;9.67;;
13331;SDS011;6735;51.456;12.626;2023-04-01T17:10:06;2.87;;;1.70;;
13331;SDS011;6735;51.456;12.626;2023-04-01T17:13:06;1.40;;;1.30;;
13331;SDS011;6735;51.456;12.626;2023-04-01T17:15:55;2.03;;;1.73;;
13331;SDS011;6735;51.456;12.626;2023-04-01T17:19:03;2.23;;;1.57;;
13331;SDS011;6735;51.456;12.626;2023-04-01T17:35:39;3.53;;;3.13;;
13331;SDS011;6735;51.456;12.626;2023-04-01T17:38:39;4.50;;;3.63;;
13331;SDS011;6735;51.456;12.626;2023-04-01T17:44:20;6.50;;;4.00;;
13331;SDS011;6735;51.456;12.626;2023-04-01T17:49:50;4.97;;;4.47;;
13331;SDS011;6735;51.456;12.626;2023-04-01T17:52:52;7.67;;;5.07;;
13331;SDS011;6735;51.456;12.626;2023-04-01T17:55:44;5.80;;;5.20;;
13331;SDS011;6735;51.456;12.626;2023-04-01T17:58:28;5.97;;;4.80;;
13331;SDS011;6735;51.456;12.626;2023-04-01T18:04:17;11.33;;;8.33;;
13331;SDS011;6735;51.456;12.626;2023-04-01T18:15:40;7.63;;;6.87;;
13331;SDS011;6735;51.456;12.626;2023-04-01T18:21:15;4.80;;;4.33;;
13331;SDS011;6735;51.456;12.626;2023-04-01T18:23:56;4.80;;;4.40;;
13331;SDS011;6735;51.456;12.626;2023-04-01T18:26:27;6.03;;;5.53;;
13331;SDS011;6735;51.456;12.626;2023-04-01T18:34:55;12.80;;;9.60;;
13331;SDS011;6735;51.456;12.626;2023-04-01T18:37:34;10.07;;;9.07;;
13331;SDS011;6735;51.456;12.626;2023-04-01T18:40:10;6.80;;;6.20;;
13331;SDS011;6735;51.456;12.626;2023-04-01T18:42:50;5.93;;;5.43;;
13331;SDS011;6735;51.456;12.626;2023-04-01T18:45:40;6.90;;;6.20;;
13331;SDS011;6735;51.456;12.626;2023-04-01T18:48:15;4.33;;;4.03;;
13331;SDS011;6735;51.456;12.626;2023-04-01T18:51:16;3.83;;;3.63;;
13331;SDS011;6735;51.456;12.626;2023-04-01T18:54:11;3.50;;;3.30;;
13331;SDS011;6735;51.456;12.626;2023-04-01T18:57:00;3.40;;;3.20;;
13331;SDS011;6735;51.456;12.626;2023-04-01T18:59:34;3.20;;;3.00;;
13331;SDS011;6735;51.456;12.626;2023-04-01T19:02:25;3.50;;;3.30;;
13331;SDS011;6735;51.456;12.626;2023-04-01T19:08:12;4.13;;;3.83;;
13331;SDS011;6735;51.456;12.626;2023-04-01T19:10:17;3.60;;;3.40;;
13331;SDS011;6735;51.456;12.626;2023-04-01T19:15:39;3.60;;;3.40;;
13331;SDS011;6735;51.456;12.626;2023-04-01T19:29:03;3.70;;;3.50;;
13331;SDS011;6735;51.456;12.626;2023-04-01T19:36:50;4.20;;;3.90;;
13331;SDS011;6735;51.456;12.626;2023-04-01T19:39:27;4.20;;;3.90;;
13331;SDS011;6735;51.456;12.626;2023-04-01T19:42:28;4.23;;;3.93;;
13331;SDS011;6735;51.456;12.626;2023-04-01T19:45:07;4.40;;;4.10;;
13331;SDS011;6735;51.456;12.626;2023-04-01T19:47:54;4.50;;;4.20;;
13331;SDS011;6735;51.456;12.626;2023-04-01T19:51:00;5.00;;;4.27;;
13331;SDS011;6735;51.456;12.626;2023-04-01T19:53:48;4.30;;;4.00;;
13331;SDS011;6735;51.456;12.626;2023-04-01T19:59:28;5.03;;;4.63;;
13331;SDS011;6735;51.456;12.626;2023-04-01T20:04:55;4.50;;;4.20;;
13331;SDS011;6735;51.456;12.626;2023-04-01T20:07:30;6.53;;;4.60;;
13331;SDS011;6735;51.456;12.626;2023-04-01T20:10:06;4.53;;;4.23;;
13331;SDS011;6735;51.456;12.626;2023-04-01T20:15:33;5.70;;;5.30;;
13331;SDS011;6735;51.456;12.626;2023-04-01T20:18:14;5.07;;;4.67;;
13331;SDS011;6735;51.456;12.626;2023-04-01T20:20:53;5.10;;;4.70;;
13331;SDS011;6735;51.456;12.626;2023-04-01T20:23:38;5.50;;;5.10;;
13331;SDS011;6735;51.456;12.626;2023-04-01T20:26:13;4.93;;;4.60;;
13331;SDS011;6735;51.456;12.626;2023-04-01T20:28:45;5.50;;;5.10;;
13331;SDS011;6735;51.456;12.626;2023-04-01T20:31:36;5.83;;;5.23;;
13331;SDS011;6735;51.456;12.626;2023-04-01T20:34:12;5.33;;;4.83;;
13331;SDS011;6735;51.456;12.626;2023-04-01T20:42:48;5.37;;;4.90;;
13331;SDS011;6735;51.456;12.626;2023-04-01T20:45:31;6.50;;;6.00;;
13331;SDS011;6735;51.456;12.626;2023-04-01T20:53:29;5.90;;;5.50;;
13331;SDS011;6735;51.456;12.626;2023-04-01T20:56:17;5.40;;;5.00;;
13331;SDS011;6735;51.456;12.626;2023-04-01T20:58:51;5.90;;;5.43;;
13331;SDS011;6735;51.456;12.626;2023-04-01T21:04:33;6.07;;;5.57;;
13331;SDS011;6735;51.456;12.626;2023-04-01T21:07:17;5.60;;;5.20;;
13331;SDS011;6735;51.456;12.626;2023-04-01T21:09:55;5.70;;;5.30;;
13331;SDS011;6735;51.456;12.626;2023-04-01T21:15:39;6.83;;;6.23;;
13331;SDS011;6735;51.456;12.626;2023-04-01T21:20:43;6.07;;;5.67;;
13331;SDS011;6735;51.456;12.626;2023-04-01T21:31:27;6.27;;;5.77;;
13331;SDS011;6735;51.456;12.626;2023-04-01T21:42:23;6.27;;;5.77;;
13331;SDS011;6735;51.456;12.626;2023-04-01T21:48:01;6.70;;;6.20;;
13331;SDS011;6735;51.456;12.626;2023-04-01T21:51:00;5.90;;;5.43;;
13331;SDS011;6735;51.456;12.626;2023-04-01T21:56:49;5.77;;;5.27;;
13331;SDS011;6735;51.456;12.626;2023-04-01T21:59:27;5.07;;;4.57;;
13331;SDS011;6735;51.456;12.626;2023-04-01T22:05:11;5.57;;;5.17;;
13331;SDS011;6735;51.456;12.626;2023-04-01T22:07:46;5.10;;;4.73;;
13331;SDS011;6735;51.456;12.626;2023-04-01T22:13:26;5.50;;;5.10;;
13331;SDS011;6735;51.456;12.626;2023-04-01T22:16:26;5.13;;;4.73;;
13331;SDS011;6735;51.456;12.626;2023-04-01T22:19:26;5.37;;;4.93;;
13331;SDS011;6735;51.456;12.626;2023-04-01T22:22:05;5.87;;;5.37;;
13331;SDS011;6735;51.456;12.626;2023-04-01T22:30:07;5.57;;;5.07;;
13331;SDS011;6735;51.456;12.626;2023-04-01T22:32:48;5.10;;;4.70;;
13331;SDS011;6735;51.456;12.626;2023-04-01T22:35:36;5.30;;;4.90;;
13331;SDS011;6735;51.456;12.626;2023-04-01T22:44:34;5.23;;;4.83;;
13331;SDS011;6735;51.456;12.626;2023-04-01T22:47:04;5.13;;;4.73;;